Oconomowoc, WI (53066)

12:47 PM CDT on May 25, 2017 (GMT -0500)
Genesee Lake Farms | | Change Station

Elev 884 ft 43.04 °N, 88.49 °W | Updated 3 seconds ago

Overcast
Overcast
63.9 °F
Feels Like 63.9 °F
N
3.0
Wind Variable Wind from NNE
Gusts 6.0 mph

Today
High -- | Low -- °F
--% Chance of Precip.
Yesterday
High -- | Low -- °F
Precip. -- in
Pressure 29.67 in
Visibility 10.0 miles
Clouds Mostly Cloudy 2100 ft
Dew Point 57 °F
Humidity 79%
Rainfall 0.00 in
Snow Depth Not available.
5:21 AM 8:21 PM
Waning Crescent, 0% visible
METAR KRYV 251735Z AUTO 03007KT 10SM BKN021 17/13 A2967 RMK AO2 T01670127
Pressure 29.67 in
Visibility 10.0 miles
Clouds Mostly Cloudy 2100 ft
Dew Point 57 °F
Humidity 79%
Rainfall 0.00 in
Snow Depth Not available.
5:21 AM 8:21 PM
Waning Crescent, 0% visible
METAR KRYV 251735Z AUTO 03007KT 10SM BKN021 17/13 A2967 RMK AO2 T01670127

Get Severe Weather Alerts

Thanks for signing up!

Be on the lookout for a verification email in your inbox.

You'll start receiving the daily forecast at 6 AM.

×

10-Day Weather Forecast

Almanac

Astronomy

May. 25, 2017 Rise Set
Actual Time
Civil Twilight
Nautical Twilight
Astronomical Twilight
Moon
Length of Visible Light
Length of Day
Tomorrow will be .
, % of the Moon is Illuminated

Today's Extremes

State Highs State Lows

Community

WunderPhotos

Category 6

Welcome to Category 6. This is the collective home for Weather Underground's featured writeups by Dr. Jeff Masters (right), Bob Henson (left), Chris Burt, and other regular contributors.

Nearby

Air Quality

  Air Quality AQ Index Pollutant
Not available.

Snow Depth

Station Depth Elevation

Earthquake Activity

City Distance Mag. Time & Date
Minimum magnitude displayed is 2.5.

Coastal Water Temperatures

Place Temperature

Stations

Nearby Weather Stations

Station Location Temp. Windchill Dew Point Humidity Wind Precip. Elev Updated Type
                   

Watches & Warnings

There are currently no watches in effect.